sensor_id;sensor_type;location;lat;lon;timestamp;temperature;humidity
48575;DHT22;34352;51.084;3.712;2023-03-24T00:00:21;13.10;84.00
48575;DHT22;34352;51.084;3.712;2023-03-24T00:02:48;13.10;83.70
48575;DHT22;34352;51.084;3.712;2023-03-24T00:05:17;13.10;84.00
48575;DHT22;34352;51.084;3.712;2023-03-24T00:07:45;13.10;84.20
48575;DHT22;34352;51.084;3.712;2023-03-24T00:10:14;13.10;84.70
48575;DHT22;34352;51.084;3.712;2023-03-24T00:12:43;13.10;84.40
48575;DHT22;34352;51.084;3.712;2023-03-24T00:15:12;13.10;84.10
48575;DHT22;34352;51.084;3.712;2023-03-24T00:17:38;13.10;84.90
48575;DHT22;34352;51.084;3.712;2023-03-24T00:20:06;13.20;83.80
48575;DHT22;34352;51.084;3.712;2023-03-24T00:22:33;13.20;84.10
48575;DHT22;34352;51.084;3.712;2023-03-24T00:24:59;13.10;85.00
48575;DHT22;34352;51.084;3.712;2023-03-24T00:27:29;13.10;84.30
48575;DHT22;34352;51.084;3.712;2023-03-24T00:29:55;13.20;84.30
48575;DHT22;34352;51.084;3.712;2023-03-24T00:32:24;13.20;83.90
48575;DHT22;34352;51.084;3.712;2023-03-24T00:34:51;13.20;84.20
48575;DHT22;34352;51.084;3.712;2023-03-24T00:37:18;13.20;84.20
48575;DHT22;34352;51.084;3.712;2023-03-24T00:39:44;13.20;82.90
48575;DHT22;34352;51.084;3.712;2023-03-24T00:42:10;13.20;82.50
48575;DHT22;34352;51.084;3.712;2023-03-24T00:44:39;13.20;82.10
48575;DHT22;34352;51.084;3.712;2023-03-24T00:47:04;13.20;82.80
48575;DHT22;34352;51.084;3.712;2023-03-24T00:49:30;13.20;84.50
48575;DHT22;34352;51.084;3.712;2023-03-24T00:52:19;13.10;86.10
48575;DHT22;34352;51.084;3.712;2023-03-24T00:54:52;13.00;87.70
48575;DHT22;34352;51.084;3.712;2023-03-24T00:57:23;13.00;87.70
48575;DHT22;34352;51.084;3.712;2023-03-24T00:59:52;13.00;88.90
48575;DHT22;34352;51.084;3.712;2023-03-24T01:02:25;13.00;90.10
48575;DHT22;34352;51.084;3.712;2023-03-24T01:04:57;12.90;91.20
48575;DHT22;34352;51.084;3.712;2023-03-24T01:07:25;12.80;92.00
48575;DHT22;34352;51.084;3.712;2023-03-24T01:09:52;12.80;92.60
48575;DHT22;34352;51.084;3.712;2023-03-24T01:12:34;12.70;93.40
48575;DHT22;34352;51.084;3.712;2023-03-24T01:15:07;12.70;93.90
48575;DHT22;34352;51.084;3.712;2023-03-24T01:17:34;12.70;94.10
48575;DHT22;34352;51.084;3.712;2023-03-24T01:20:00;12.70;93.90
48575;DHT22;34352;51.084;3.712;2023-03-24T01:22:34;12.60;93.30
48575;DHT22;34352;51.084;3.712;2023-03-24T01:25:03;12.40;92.20
48575;DHT22;34352;51.084;3.712;2023-03-24T01:27:29;12.20;90.90
48575;DHT22;34352;51.084;3.712;2023-03-24T01:29:59;12.10;89.10
48575;DHT22;34352;51.084;3.712;2023-03-24T01:32:29;12.00;88.00
48575;DHT22;34352;51.084;3.712;2023-03-24T01:34:55;11.90;86.20
48575;DHT22;34352;51.084;3.712;2023-03-24T01:37:21;11.80;83.10
48575;DHT22;34352;51.084;3.712;2023-03-24T01:39:49;11.70;75.60
48575;DHT22;34352;51.084;3.712;2023-03-24T01:42:21;11.70;71.70
48575;DHT22;34352;51.084;3.712;2023-03-24T01:44:49;11.60;71.70
48575;DHT22;34352;51.084;3.712;2023-03-24T01:47:16;11.50;68.00
48575;DHT22;34352;51.084;3.712;2023-03-24T01:49:54;11.50;67.90
48575;DHT22;34352;51.084;3.712;2023-03-24T01:52:26;11.50;69.30
48575;DHT22;34352;51.084;3.712;2023-03-24T01:55:01;11.40;71.10
48575;DHT22;34352;51.084;3.712;2023-03-24T01:59:59;11.40;73.40
48575;DHT22;34352;51.084;3.712;2023-03-24T02:02:33;11.30;71.80
48575;DHT22;34352;51.084;3.712;2023-03-24T02:05:06;11.30;71.00
48575;DHT22;34352;51.084;3.712;2023-03-24T02:08:03;11.20;71.10
48575;DHT22;34352;51.084;3.712;2023-03-24T02:10:32;11.20;71.80
48575;DHT22;34352;51.084;3.712;2023-03-24T02:12:59;11.20;71.40
48575;DHT22;34352;51.084;3.712;2023-03-24T02:15:27;11.20;70.50
48575;DHT22;34352;51.084;3.712;2023-03-24T02:18:06;11.20;69.50
48575;DHT22;34352;51.084;3.712;2023-03-24T02:23:49;11.10;68.90
48575;DHT22;34352;51.084;3.712;2023-03-24T02:26:46;11.10;67.90
48575;DHT22;34352;51.084;3.712;2023-03-24T02:32:17;11.00;68.90
48575;DHT22;34352;51.084;3.712;2023-03-24T02:47:00;10.90;72.60
48575;DHT22;34352;51.084;3.712;2023-03-24T02:52:17;11.00;74.80
48575;DHT22;34352;51.084;3.712;2023-03-24T02:57:58;10.90;74.20
48575;DHT22;34352;51.084;3.712;2023-03-24T03:00:49;10.90;76.10
48575;DHT22;34352;51.084;3.712;2023-03-24T03:03:18;10.80;77.00
48575;DHT22;34352;51.084;3.712;2023-03-24T03:06:14;10.90;77.60
48575;DHT22;34352;51.084;3.712;2023-03-24T03:08:43;10.80;78.20
48575;DHT22;34352;51.084;3.712;2023-03-24T03:11:14;10.80;78.20
48575;DHT22;34352;51.084;3.712;2023-03-24T03:16:34;10.80;79.40
48575;DHT22;34352;51.084;3.712;2023-03-24T03:19:17;10.80;79.50
48575;DHT22;34352;51.084;3.712;2023-03-24T03:21:45;10.80;79.60
48575;DHT22;34352;51.084;3.712;2023-03-24T03:24:17;10.80;78.60
48575;DHT22;34352;51.084;3.712;2023-03-24T03:26:46;10.80;78.70
48575;DHT22;34352;51.084;3.712;2023-03-24T03:29:19;10.80;78.10
48575;DHT22;34352;51.084;3.712;2023-03-24T03:31:58;10.70;78.90
48575;DHT22;34352;51.084;3.712;2023-03-24T03:34:36;10.60;79.60
48575;DHT22;34352;51.084;3.712;2023-03-24T03:37:39;10.60;81.20
48575;DHT22;34352;51.084;3.712;2023-03-24T03:40:08;10.60;80.90
48575;DHT22;34352;51.084;3.712;2023-03-24T03:42:37;10.50;81.30
48575;DHT22;34352;51.084;3.712;2023-03-24T03:45:04;10.50;82.40
48575;DHT22;34352;51.084;3.712;2023-03-24T03:47:31;10.50;83.00
48575;DHT22;34352;51.084;3.712;2023-03-24T03:49:57;10.50;82.50
48575;DHT22;34352;51.084;3.712;2023-03-24T03:52:27;10.60;82.00
48575;DHT22;34352;51.084;3.712;2023-03-24T03:55:08;10.60;82.80
48575;DHT22;34352;51.084;3.712;2023-03-24T03:57:53;10.60;82.00
48575;DHT22;34352;51.084;3.712;2023-03-24T04:00:32;10.60;80.30
48575;DHT22;34352;51.084;3.712;2023-03-24T04:08:36;10.50;80.10
48575;DHT22;34352;51.084;3.712;2023-03-24T04:11:28;10.40;81.00
48575;DHT22;34352;51.084;3.712;2023-03-24T04:20:06;10.50;80.60
48575;DHT22;34352;51.084;3.712;2023-03-24T04:28:22;10.00;78.40
48575;DHT22;34352;51.084;3.712;2023-03-24T04:31:06;10.50;79.30
48575;DHT22;34352;51.084;3.712;2023-03-24T04:33:55;11.10;78.10
48575;DHT22;34352;51.084;3.712;2023-03-24T04:36:37;10.50;77.80
48575;DHT22;34352;51.084;3.712;2023-03-24T04:39:12;10.40;78.30
48575;DHT22;34352;51.084;3.712;2023-03-24T04:41:40;10.40;79.60
48575;DHT22;34352;51.084;3.712;2023-03-24T04:44:08;10.30;79.40
48575;DHT22;34352;51.084;3.712;2023-03-24T04:46:35;10.30;80.30
48575;DHT22;34352;51.084;3.712;2023-03-24T04:49:02;10.30;81.10
48575;DHT22;34352;51.084;3.712;2023-03-24T04:51:30;10.30;80.20
48575;DHT22;34352;51.084;3.712;2023-03-24T04:53:57;10.40;79.50
48575;DHT22;34352;51.084;3.712;2023-03-24T04:56:48;10.30;79.70
48575;DHT22;34352;51.084;3.712;2023-03-24T04:59:15;10.40;80.70
48575;DHT22;34352;51.084;3.712;2023-03-24T05:01:42;10.30;80.30
48575;DHT22;34352;51.084;3.712;2023-03-24T05:04:18;10.30;80.10
48575;DHT22;34352;51.084;3.712;2023-03-24T05:06:44;10.30;79.60
48575;DHT22;34352;51.084;3.712;2023-03-24T05:09:21;10.30;79.00
48575;DHT22;34352;51.084;3.712;2023-03-24T05:11:48;10.30;79.20
48575;DHT22;34352;51.084;3.712;2023-03-24T05:14:15;10.20;79.00
48575;DHT22;34352;51.084;3.712;2023-03-24T05:16:41;10.20;80.30
48575;DHT22;34352;51.084;3.712;2023-03-24T05:19:07;10.10;80.40
48575;DHT22;34352;51.084;3.712;2023-03-24T05:21:33;10.10;80.50
48575;DHT22;34352;51.084;3.712;2023-03-24T05:23:59;10.10;80.20
48575;DHT22;34352;51.084;3.712;2023-03-24T05:26:25;10.10;81.10
48575;DHT22;34352;51.084;3.712;2023-03-24T05:28:51;10.10;80.20
48575;DHT22;34352;51.084;3.712;2023-03-24T05:31:19;10.10;79.70
48575;DHT22;34352;51.084;3.712;2023-03-24T05:33:45;10.10;81.10
48575;DHT22;34352;51.084;3.712;2023-03-24T05:36:11;10.00;81.70
48575;DHT22;34352;51.084;3.712;2023-03-24T05:38:37;10.20;80.40
48575;DHT22;34352;51.084;3.712;2023-03-24T05:41:03;10.20;79.60
48575;DHT22;34352;51.084;3.712;2023-03-24T05:43:30;10.20;79.80
48575;DHT22;34352;51.084;3.712;2023-03-24T05:45:56;10.20;79.30
48575;DHT22;34352;51.084;3.712;2023-03-24T05:48:26;10.20;80.30
48575;DHT22;34352;51.084;3.712;2023-03-24T05:50:52;10.30;78.90
48575;DHT22;34352;51.084;3.712;2023-03-24T05:53:18;10.40;78.30
48575;DHT22;34352;51.084;3.712;2023-03-24T05:55:47;10.40;78.40
48575;DHT22;34352;51.084;3.712;2023-03-24T05:58:13;10.50;78.30
48575;DHT22;34352;51.084;3.712;2023-03-24T06:00:41;10.50;77.60
48575;DHT22;34352;51.084;3.712;2023-03-24T06:03:07;10.60;77.90
48575;DHT22;34352;51.084;3.712;2023-03-24T06:05:33;10.60;77.80
48575;DHT22;34352;51.084;3.712;2023-03-24T06:08:00;10.50;77.50
48575;DHT22;34352;51.084;3.712;2023-03-24T06:10:26;10.60;77.90
48575;DHT22;34352;51.084;3.712;2023-03-24T06:12:53;10.60;77.40
48575;DHT22;34352;51.084;3.712;2023-03-24T06:15:20;10.60;77.80
48575;DHT22;34352;51.084;3.712;2023-03-24T06:17:47;10.60;77.70
48575;DHT22;34352;51.084;3.712;2023-03-24T06:20:15;10.70;75.50
48575;DHT22;34352;51.084;3.712;2023-03-24T06:22:44;10.70;73.70
48575;DHT22;34352;51.084;3.712;2023-03-24T06:25:13;10.80;73.50
48575;DHT22;34352;51.084;3.712;2023-03-24T06:27:43;10.80;71.60
48575;DHT22;34352;51.084;3.712;2023-03-24T06:30:16;10.80;70.90
48575;DHT22;34352;51.084;3.712;2023-03-24T06:32:43;10.80;71.10
48575;DHT22;34352;51.084;3.712;2023-03-24T06:35:13;10.80;70.20
48575;DHT22;34352;51.084;3.712;2023-03-24T06:37:41;11.50;69.80
48575;DHT22;34352;51.084;3.712;2023-03-24T06:40:09;10.80;68.60
48575;DHT22;34352;51.084;3.712;2023-03-24T06:42:38;10.80;67.80
48575;DHT22;34352;51.084;3.712;2023-03-24T06:45:22;10.80;68.70
48575;DHT22;34352;51.084;3.712;2023-03-24T06:47:52;10.90;64.20
48575;DHT22;34352;51.084;3.712;2023-03-24T06:50:21;12.30;65.20
48575;DHT22;34352;51.084;3.712;2023-03-24T06:52:46;11.10;62.90
48575;DHT22;34352;51.084;3.712;2023-03-24T06:55:13;9.90;58.70
48575;DHT22;34352;51.084;3.712;2023-03-24T06:57:42;11.10;60.40
48575;DHT22;34352;51.084;3.712;2023-03-24T07:00:20;10.20;62.00
48575;DHT22;34352;51.084;3.712;2023-03-24T07:05:45;11.10;62.00
48575;DHT22;34352;51.084;3.712;2023-03-24T07:08:26;9.40;55.90
48575;DHT22;34352;51.084;3.712;2023-03-24T07:10:58;11.20;58.70
48575;DHT22;34352;51.084;3.712;2023-03-24T07:13:30;11.10;60.90
48575;DHT22;34352;51.084;3.712;2023-03-24T07:15:58;11.20;58.60
48575;DHT22;34352;51.084;3.712;2023-03-24T07:18:25;10.50;59.50
48575;DHT22;34352;51.084;3.712;2023-03-24T07:20:56;10.10;55.40
48575;DHT22;34352;51.084;3.712;2023-03-24T07:23:24;11.30;54.60
48575;DHT22;34352;51.084;3.712;2023-03-24T07:26:00;11.30;58.10
48575;DHT22;34352;51.084;3.712;2023-03-24T07:28:28;11.20;53.90
48575;DHT22;34352;51.084;3.712;2023-03-24T07:31:16;10.90;56.60
48575;DHT22;34352;51.084;3.712;2023-03-24T07:33:50;10.20;61.70
48575;DHT22;34352;51.084;3.712;2023-03-24T07:36:22;10.80;63.40
48575;DHT22;34352;51.084;3.712;2023-03-24T07:38:57;11.00;61.00
48575;DHT22;34352;51.084;3.712;2023-03-24T07:41:23;11.20;59.30
48575;DHT22;34352;51.084;3.712;2023-03-24T07:43:59;11.20;57.50
48575;DHT22;34352;51.084;3.712;2023-03-24T07:46:29;12.00;57.40
48575;DHT22;34352;51.084;3.712;2023-03-24T07:48:57;11.70;55.20
48575;DHT22;34352;51.084;3.712;2023-03-24T07:51:23;12.20;42.50
48575;DHT22;34352;51.084;3.712;2023-03-24T07:53:52;13.40;21.50
48575;DHT22;34352;51.084;3.712;2023-03-24T07:56:20;14.30;1.00
48575;DHT22;34352;51.084;3.712;2023-03-24T07:58:47;14.60;1.00
48575;DHT22;34352;51.084;3.712;2023-03-24T08:01:16;15.20;1.00
48575;DHT22;34352;51.084;3.712;2023-03-24T08:03:47;15.40;1.00
48575;DHT22;34352;51.084;3.712;2023-03-24T08:06:19;14.30;1.00
48575;DHT22;34352;51.084;3.712;2023-03-24T08:08:47;13.70;1.00
48575;DHT22;34352;51.084;3.712;2023-03-24T08:11:15;13.50;1.00
48575;DHT22;34352;51.084;3.712;2023-03-24T08:13:42;12.30;1.00
48575;DHT22;34352;51.084;3.712;2023-03-24T08:16:10;12.90;1.00
48575;DHT22;34352;51.084;3.712;2023-03-24T08:18:44;13.10;1.00
48575;DHT22;34352;51.084;3.712;2023-03-24T08:21:10;14.10;1.00
48575;DHT22;34352;51.084;3.712;2023-03-24T08:23:40;12.70;1.00
48575;DHT22;34352;51.084;3.712;2023-03-24T08:26:20;11.50;1.00
48575;DHT22;34352;51.084;3.712;2023-03-24T08:28:48;12.60;1.00
48575;DHT22;34352;51.084;3.712;2023-03-24T08:31:14;12.80;1.00
48575;DHT22;34352;51.084;3.712;2023-03-24T08:33:43;12.50;1.00
48575;DHT22;34352;51.084;3.712;2023-03-24T08:36:13;12.50;1.00
48575;DHT22;34352;51.084;3.712;2023-03-24T08:38:40;12.40;1.00
48575;DHT22;34352;51.084;3.712;2023-03-24T08:41:08;12.40;1.00
48575;DHT22;34352;51.084;3.712;2023-03-24T08:43:35;12.40;1.00
48575;DHT22;34352;51.084;3.712;2023-03-24T08:46:06;12.50;1.00
48575;DHT22;34352;51.084;3.712;2023-03-24T08:48:33;11.90;1.00
48575;DHT22;34352;51.084;3.712;2023-03-24T08:51:10;12.30;1.00
48575;DHT22;34352;51.084;3.712;2023-03-24T08:53:40;12.40;1.00
48575;DHT22;34352;51.084;3.712;2023-03-24T08:56:09;12.10;3.20
48575;DHT22;34352;51.084;3.712;2023-03-24T08:58:36;12.20;9.80
48575;DHT22;34352;51.084;3.712;2023-03-24T09:01:02;12.30;8.10
48575;DHT22;34352;51.084;3.712;2023-03-24T09:03:28;12.10;6.70
48575;DHT22;34352;51.084;3.712;2023-03-24T09:05:55;12.20;5.20
48575;DHT22;34352;51.084;3.712;2023-03-24T09:08:28;12.10;7.00
48575;DHT22;34352;51.084;3.712;2023-03-24T09:10:54;12.00;7.50
48575;DHT22;34352;51.084;3.712;2023-03-24T09:13:22;13.20;7.80
48575;DHT22;34352;51.084;3.712;2023-03-24T09:15:53;12.20;14.90
48575;DHT22;34352;51.084;3.712;2023-03-24T09:18:21;12.10;8.00
48575;DHT22;34352;51.084;3.712;2023-03-24T09:20:49;12.70;1.00
48575;DHT22;34352;51.084;3.712;2023-03-24T09:23:23;12.80;1.00
48575;DHT22;34352;51.084;3.712;2023-03-24T09:25:52;12.60;1.00
48575;DHT22;34352;51.084;3.712;2023-03-24T09:28:27;12.90;1.00
48575;DHT22;34352;51.084;3.712;2023-03-24T09:30:59;14.40;1.00
48575;DHT22;34352;51.084;3.712;2023-03-24T09:33:27;13.00;1.00
48575;DHT22;34352;51.084;3.712;2023-03-24T09:35:57;12.90;1.00
48575;DHT22;34352;51.084;3.712;2023-03-24T09:38:24;12.80;1.00
48575;DHT22;34352;51.084;3.712;2023-03-24T09:40:57;12.80;1.00
48575;DHT22;34352;51.084;3.712;2023-03-24T09:43:47;12.80;1.00
48575;DHT22;34352;51.084;3.712;2023-03-24T09:46:43;11.60;1.00
48575;DHT22;34352;51.084;3.712;2023-03-24T09:49:23;12.10;6.10
48575;DHT22;34352;51.084;3.712;2023-03-24T09:52:00;12.40;16.80
48575;DHT22;34352;51.084;3.712;2023-03-24T09:54:56;12.20;3.80
48575;DHT22;34352;51.084;3.712;2023-03-24T09:57:37;12.10;21.30
48575;DHT22;34352;51.084;3.712;2023-03-24T10:03:15;11.70;35.90
48575;DHT22;34352;51.084;3.712;2023-03-24T10:08:38;11.80;40.90
48575;DHT22;34352;51.084;3.712;2023-03-24T10:21:50;13.60;1.00
48575;DHT22;34352;51.084;3.712;2023-03-24T10:29:54;12.50;1.00
48575;DHT22;34352;51.084;3.712;2023-03-24T10:32:24;12.90;25.20
48575;DHT22;34352;51.084;3.712;2023-03-24T10:34:56;12.20;26.60
48575;DHT22;34352;51.084;3.712;2023-03-24T10:37:29;12.00;26.30
48575;DHT22;34352;51.084;3.712;2023-03-24T10:39:57;12.60;29.50
48575;DHT22;34352;51.084;3.712;2023-03-24T10:42:33;14.20;1.00
48575;DHT22;34352;51.084;3.712;2023-03-24T10:45:15;15.60;1.00
48575;DHT22;34352;51.084;3.712;2023-03-24T10:47:44;16.70;1.00
48575;DHT22;34352;51.084;3.712;2023-03-24T10:50:12;18.00;1.00
48575;DHT22;34352;51.084;3.712;2023-03-24T10:52:46;18.30;99.90
48575;DHT22;34352;51.084;3.712;2023-03-24T10:55:36;18.50;99.90
48575;DHT22;34352;51.084;3.712;2023-03-24T10:58:29;19.20;99.90
48575;DHT22;34352;51.084;3.712;2023-03-24T11:01:02;19.40;99.90
48575;DHT22;34352;51.084;3.712;2023-03-24T11:03:35;19.50;99.90
48575;DHT22;34352;51.084;3.712;2023-03-24T11:06:20;18.90;99.90
48575;DHT22;34352;51.084;3.712;2023-03-24T11:09:08;19.60;99.90
48575;DHT22;34352;51.084;3.712;2023-03-24T11:12:02;18.70;99.90
48575;DHT22;34352;51.084;3.712;2023-03-24T11:14:32;18.60;99.90
48575;DHT22;34352;51.084;3.712;2023-03-24T11:17:10;18.10;99.90
48575;DHT22;34352;51.084;3.712;2023-03-24T11:19:36;17.50;99.90
48575;DHT22;34352;51.084;3.712;2023-03-24T11:22:08;18.10;99.90
48575;DHT22;34352;51.084;3.712;2023-03-24T11:27:15;17.00;99.90
48575;DHT22;34352;51.084;3.712;2023-03-24T11:29:48;16.70;99.90
48575;DHT22;34352;51.084;3.712;2023-03-24T11:32:23;16.50;99.90
48575;DHT22;34352;51.084;3.712;2023-03-24T11:35:06;16.20;99.90
48575;DHT22;34352;51.084;3.712;2023-03-24T11:37:35;16.20;99.90
48575;DHT22;34352;51.084;3.712;2023-03-24T11:45:26;14.70;99.90
48575;DHT22;34352;51.084;3.712;2023-03-24T11:47:56;14.80;99.90
48575;DHT22;34352;51.084;3.712;2023-03-24T11:50:29;14.40;1.00
48575;DHT22;34352;51.084;3.712;2023-03-24T11:56:25;13.50;1.00
48575;DHT22;34352;51.084;3.712;2023-03-24T12:02:03;13.10;8.20
48575;DHT22;34352;51.084;3.712;2023-03-24T12:05:02;13.40;13.50
48575;DHT22;34352;51.084;3.712;2023-03-24T12:15:55;13.70;1.00
48575;DHT22;34352;51.084;3.712;2023-03-24T12:21:08;15.40;1.00
48575;DHT22;34352;51.084;3.712;2023-03-24T12:23:58;17.20;1.00
48575;DHT22;34352;51.084;3.712;2023-03-24T12:26:30;18.40;1.00
48575;DHT22;34352;51.084;3.712;2023-03-24T12:37:32;17.20;99.90
48575;DHT22;34352;51.084;3.712;2023-03-24T12:42:46;17.70;99.90
48575;DHT22;34352;51.084;3.712;2023-03-24T12:45:23;18.00;99.90
48575;DHT22;34352;51.084;3.712;2023-03-24T12:54:00;18.70;99.90
48575;DHT22;34352;51.084;3.712;2023-03-24T12:56:46;18.70;99.90
48575;DHT22;34352;51.084;3.712;2023-03-24T12:59:31;17.50;99.90
48575;DHT22;34352;51.084;3.712;2023-03-24T13:04:46;16.90;99.90
48575;DHT22;34352;51.084;3.712;2023-03-24T13:07:18;17.40;99.90
48575;DHT22;34352;51.084;3.712;2023-03-24T13:15:29;17.40;99.90
48575;DHT22;34352;51.084;3.712;2023-03-24T13:21:15;16.40;99.90
48575;DHT22;34352;51.084;3.712;2023-03-24T13:26:19;15.60;99.90
48575;DHT22;34352;51.084;3.712;2023-03-24T13:28:50;15.30;99.90
48575;DHT22;34352;51.084;3.712;2023-03-24T13:31:19;15.30;1.00
48575;DHT22;34352;51.084;3.712;2023-03-24T13:33:47;15.20;99.90
48575;DHT22;34352;51.084;3.712;2023-03-24T13:36:44;14.70;1.00
48575;DHT22;34352;51.084;3.712;2023-03-24T13:39:18;14.30;1.00
48575;DHT22;34352;51.084;3.712;2023-03-24T13:41:51;13.90;1.00
48575;DHT22;34352;51.084;3.712;2023-03-24T13:44:22;13.50;15.90
48575;DHT22;34352;51.084;3.712;2023-03-24T13:47:12;13.50;11.40
48575;DHT22;34352;51.084;3.712;2023-03-24T13:49:42;14.20;1.00
48575;DHT22;34352;51.084;3.712;2023-03-24T13:52:38;14.90;1.00
48575;DHT22;34352;51.084;3.712;2023-03-24T13:55:26;15.60;1.00
48575;DHT22;34352;51.084;3.712;2023-03-24T13:58:14;16.00;1.00
48575;DHT22;34352;51.084;3.712;2023-03-24T14:01:19;15.70;1.00
48575;DHT22;34352;51.084;3.712;2023-03-24T14:07:31;14.90;1.00
48575;DHT22;34352;51.084;3.712;2023-03-24T14:13:04;15.80;1.00
48575;DHT22;34352;51.084;3.712;2023-03-24T14:20:58;17.30;1.00
48575;DHT22;34352;51.084;3.712;2023-03-24T14:23:47;16.80;99.90
48575;DHT22;34352;51.084;3.712;2023-03-24T14:31:31;15.40;1.00
48575;DHT22;34352;51.084;3.712;2023-03-24T14:34:22;15.90;1.00
48575;DHT22;34352;51.084;3.712;2023-03-24T14:36:58;16.20;99.90
48575;DHT22;34352;51.084;3.712;2023-03-24T14:39:46;15.90;99.90
48575;DHT22;34352;51.084;3.712;2023-03-24T14:47:45;16.40;99.90
48575;DHT22;34352;51.084;3.712;2023-03-24T14:50:22;16.10;99.90
48575;DHT22;34352;51.084;3.712;2023-03-24T14:52:59;15.70;99.90
48575;DHT22;34352;51.084;3.712;2023-03-24T14:55:30;15.40;99.90
48575;DHT22;34352;51.084;3.712;2023-03-24T14:58:23;15.30;99.90
48575;DHT22;34352;51.084;3.712;2023-03-24T15:00:56;16.30;99.90
48575;DHT22;34352;51.084;3.712;2023-03-24T15:03:57;14.40;99.90
48575;DHT22;34352;51.084;3.712;2023-03-24T15:06:29;14.80;99.90
48575;DHT22;34352;51.084;3.712;2023-03-24T15:08:59;15.00;99.90
48575;DHT22;34352;51.084;3.712;2023-03-24T15:11:34;14.70;99.90
48575;DHT22;34352;51.084;3.712;2023-03-24T15:17:15;14.90;99.90
48575;DHT22;34352;51.084;3.712;2023-03-24T15:19:54;14.10;99.90
48575;DHT22;34352;51.084;3.712;2023-03-24T15:22:54;14.20;99.90
48575;DHT22;34352;51.084;3.712;2023-03-24T15:32:04;14.90;99.90
48575;DHT22;34352;51.084;3.712;2023-03-24T15:34:59;15.70;99.90
48575;DHT22;34352;51.084;3.712;2023-03-24T15:40:05;14.80;99.90
48575;DHT22;34352;51.084;3.712;2023-03-24T15:42:45;14.60;99.90
48575;DHT22;34352;51.084;3.712;2023-03-24T15:48:21;14.60;99.90
48575;DHT22;34352;51.084;3.712;2023-03-24T15:50:58;14.70;99.90
48575;DHT22;34352;51.084;3.712;2023-03-24T15:53:42;15.00;99.90
48575;DHT22;34352;51.084;3.712;2023-03-24T15:56:30;15.20;99.90
48575;DHT22;34352;51.084;3.712;2023-03-24T15:59:13;15.30;99.90
48575;DHT22;34352;51.084;3.712;2023-03-24T16:01:43;14.60;99.90
48575;DHT22;34352;51.084;3.712;2023-03-24T16:09:36;15.00;99.90
48575;DHT22;34352;51.084;3.712;2023-03-24T16:17:17;14.80;99.90
48575;DHT22;34352;51.084;3.712;2023-03-24T16:19:42;14.60;99.90
48575;DHT22;34352;51.084;3.712;2023-03-24T16:22:15;14.60;99.90
48575;DHT22;34352;51.084;3.712;2023-03-24T16:53:27;14.30;99.90
48575;DHT22;34352;51.084;3.712;2023-03-24T16:56:21;13.50;99.90
48575;DHT22;34352;51.084;3.712;2023-03-24T16:58:49;12.70;99.90
48575;DHT22;34352;51.084;3.712;2023-03-24T17:01:52;13.70;99.90
48575;DHT22;34352;51.084;3.712;2023-03-24T17:04:31;13.90;99.90
48575;DHT22;34352;51.084;3.712;2023-03-24T17:07:04;13.80;99.90
48575;DHT22;34352;51.084;3.712;2023-03-24T17:10:01;13.50;99.90
48575;DHT22;34352;51.084;3.712;2023-03-24T17:12:30;14.10;99.90
48575;DHT22;34352;51.084;3.712;2023-03-24T17:15:22;13.40;99.90
48575;DHT22;34352;51.084;3.712;2023-03-24T17:17:53;13.60;99.90
48575;DHT22;34352;51.084;3.712;2023-03-24T17:20:21;13.70;99.90
48575;DHT22;34352;51.084;3.712;2023-03-24T17:22:49;13.60;99.90
48575;DHT22;34352;51.084;3.712;2023-03-24T17:25:19;13.60;99.90
48575;DHT22;34352;51.084;3.712;2023-03-24T17:38:13;13.40;99.90
48575;DHT22;34352;51.084;3.712;2023-03-24T17:43:16;13.20;99.90
48575;DHT22;34352;51.084;3.712;2023-03-24T17:48:18;13.10;99.90
48575;DHT22;34352;51.084;3.712;2023-03-24T18:03:39;12.70;99.90
48575;DHT22;34352;51.084;3.712;2023-03-24T18:08:49;12.60;99.90
48575;DHT22;34352;51.084;3.712;2023-03-24T18:11:14;11.30;99.90
48575;DHT22;34352;51.084;3.712;2023-03-24T18:13:45;12.50;99.90
48575;DHT22;34352;51.084;3.712;2023-03-24T18:16:31;11.50;99.90
48575;DHT22;34352;51.084;3.712;2023-03-24T18:21:37;12.30;99.90
48575;DHT22;34352;51.084;3.712;2023-03-24T18:26:40;12.20;99.90
48575;DHT22;34352;51.084;3.712;2023-03-24T18:29:06;11.60;99.90
48575;DHT22;34352;51.084;3.712;2023-03-24T18:31:35;12.30;99.90
48575;DHT22;34352;51.084;3.712;2023-03-24T18:39:24;12.30;99.90
48575;DHT22;34352;51.084;3.712;2023-03-24T18:42:15;11.90;99.90
48575;DHT22;34352;51.084;3.712;2023-03-24T18:44:59;12.00;1.00
48575;DHT22;34352;51.084;3.712;2023-03-24T18:47:26;11.60;1.00
48575;DHT22;34352;51.084;3.712;2023-03-24T18:52:45;12.00;1.00
48575;DHT22;34352;51.084;3.712;2023-03-24T18:57:47;12.00;1.00
48575;DHT22;34352;51.084;3.712;2023-03-24T19:00:13;11.30;1.00
48575;DHT22;34352;51.084;3.712;2023-03-24T19:02:39;11.70;1.00
48575;DHT22;34352;51.084;3.712;2023-03-24T19:15:29;12.00;1.00
48575;DHT22;34352;51.084;3.712;2023-03-24T19:18:01;12.10;1.00
48575;DHT22;34352;51.084;3.712;2023-03-24T19:23:02;12.10;1.00
48575;DHT22;34352;51.084;3.712;2023-03-24T19:25:28;12.00;1.00
48575;DHT22;34352;51.084;3.712;2023-03-24T19:28:01;12.00;1.00
48575;DHT22;34352;51.084;3.712;2023-03-24T19:33:02;11.90;1.00
48575;DHT22;34352;51.084;3.712;2023-03-24T19:35:28;11.90;1.00
48575;DHT22;34352;51.084;3.712;2023-03-24T19:40:46;11.90;1.00
48575;DHT22;34352;51.084;3.712;2023-03-24T19:45:53;11.80;1.00
48575;DHT22;34352;51.084;3.712;2023-03-24T19:48:20;11.70;1.00
48575;DHT22;34352;51.084;3.712;2023-03-24T19:53:19;11.50;1.00
48575;DHT22;34352;51.084;3.712;2023-03-24T19:55:46;11.50;1.00
48575;DHT22;34352;51.084;3.712;2023-03-24T19:58:13;11.50;1.00
48575;DHT22;34352;51.084;3.712;2023-03-24T20:00:41;11.50;1.00
48575;DHT22;34352;51.084;3.712;2023-03-24T20:03:07;11.40;1.00
48575;DHT22;34352;51.084;3.712;2023-03-24T20:05:42;11.40;1.00
48575;DHT22;34352;51.084;3.712;2023-03-24T20:08:08;11.20;1.00
48575;DHT22;34352;51.084;3.712;2023-03-24T20:10:40;11.30;1.00
48575;DHT22;34352;51.084;3.712;2023-03-24T20:13:15;10.50;1.00
48575;DHT22;34352;51.084;3.712;2023-03-24T20:15:40;11.30;1.00
48575;DHT22;34352;51.084;3.712;2023-03-24T20:18:08;11.20;1.00
48575;DHT22;34352;51.084;3.712;2023-03-24T20:20:44;10.80;1.00
48575;DHT22;34352;51.084;3.712;2023-03-24T20:23:09;11.10;1.00
48575;DHT22;34352;51.084;3.712;2023-03-24T20:25:35;11.00;1.00
48575;DHT22;34352;51.084;3.712;2023-03-24T20:28:05;11.20;1.00
48575;DHT22;34352;51.084;3.712;2023-03-24T20:30:31;10.90;1.00
48575;DHT22;34352;51.084;3.712;2023-03-24T20:33:00;10.30;1.00
48575;DHT22;34352;51.084;3.712;2023-03-24T20:35:27;10.80;1.00
48575;DHT22;34352;51.084;3.712;2023-03-24T20:37:53;10.60;1.00
48575;DHT22;34352;51.084;3.712;2023-03-24T20:40:19;10.70;1.00
48575;DHT22;34352;51.084;3.712;2023-03-24T20:42:46;10.70;1.00
48575;DHT22;34352;51.084;3.712;2023-03-24T20:45:11;10.70;1.00